Time;durP1;ratioP1;P1;durP2;ratioP2;P2;SDS_P1;SDS_P2;PMS_P1;PMS_P2;Temp;Humidity;BMP_temperature;BMP_pressure;BME280_temperature;BME280_humidity;BME280_pressure;Samples;Min_cycle;Max_cycle;Signal;HPM_P1;HPM_P2
2022/09/06 00:01:46;;;;;;;;;;;;;;;17.59;100.00;101494.41;5325315;27;19923;-81
2022/09/06 00:04:17;;;;;;;;;;;;;;;17.50;100.00;101527.84;5324421;27;19927;-81
2022/09/06 00:06:48;;;;;;;;;;;;;;;17.37;100.00;101579.56;5325411;27;19930;-81
2022/09/06 00:09:19;;;;;;;;;;;;;;;17.19;100.00;101579.75;5326057;27;19943;-81
2022/09/06 00:11:50;;;;;;;;;;;;;;;17.02;100.00;101573.50;5322627;27;19970;-82
2022/09/06 00:14:22;;;;;;;;;;;;;;;17.00;100.00;101622.19;5323673;27;20334;-82
2022/09/06 00:16:53;;;;;;;;;;;;;;;16.92;100.00;101610.56;5323354;27;19945;-82
2022/09/06 00:19:24;;;;;;;;;;;;;;;16.88;100.00;101625.34;5322181;27;19971;-82
2022/09/06 00:21:55;;;;;;;;;;;;;;;16.83;100.00;101628.53;5323657;27;21653;-82
2022/09/06 00:24:26;;;;;;;;;;;;;;;16.86;100.00;101643.53;5325231;27;19916;-82
2022/09/06 00:26:58;;;;;;;;;;;;;;;16.84;100.00;101640.16;5323741;27;19924;-81
2022/09/06 00:29:29;;;;;;;;;;;;;;;16.75;100.00;101639.25;5323107;27;20001;-80
2022/09/06 00:32:00;;;;;;;;;;;;;;;16.66;100.00;101646.47;5322401;27;19931;-80
2022/09/06 00:34:31;;;;;;;;;;;;;;;16.59;100.00;101648.97;5323110;27;19920;-79
2022/09/06 00:37:02;;;;;;;;;;;;;;;16.53;100.00;101640.69;5322595;27;19920;-80
2022/09/06 00:39:34;;;;;;;;;;;;;;;16.51;100.00;101627.38;5323402;27;19969;-80
2022/09/06 00:42:09;;;;;;;;;;;;;;;16.55;100.00;101628.75;5322078;27;19920;-80
2022/09/06 00:44:40;;;;;;;;;;;;;;;16.52;100.00;101620.16;5327801;27;19947;-80
2022/09/06 00:47:11;;;;;;;;;;;;;;;16.51;100.00;101613.91;5324085;27;20572;-81
2022/09/06 00:49:45;;;;;;;;;;;;;;;16.50;100.00;101604.16;5321738;27;19919;-81
2022/09/06 00:52:18;;;;;;;;;;;;;;;16.53;100.00;101611.06;5323756;27;20502;-81
2022/09/06 00:54:49;;;;;;;;;;;;;;;16.52;100.00;101596.78;5326895;27;19931;-80
2022/09/06 00:57:25;;;;;;;;;;;;;;;16.54;100.00;101600.13;5318984;27;20364;-80
2022/09/06 00:59:58;;;;;;;;;;;;;;;16.56;100.00;101595.44;5322485;27;19955;-80
2022/09/06 01:02:29;;;;;;;;;;;;;;;16.56;100.00;101586.50;5324943;27;20007;-80
2022/09/06 01:05:02;;;;;;;;;;;;;;;16.67;100.00;101571.88;5321494;27;19942;-80
2022/09/06 01:07:52;;;;;;;;;;;;;;;16.62;100.00;101575.09;5324375;27;19920;-80
2022/09/06 01:10:38;;;;;;;;;;;;;;;16.64;100.00;101570.38;5319805;27;20400;-80
2022/09/06 01:13:18;;;;;;;;;;;;;;;16.62;100.00;101572.41;5325756;27;19988;-79
2022/09/06 01:16:04;;;;;;;;;;;;;;;16.58;100.00;101566.47;5320956;27;20296;-80
2022/09/06 01:18:56;;;;;;;;;;;;;;;16.56;100.00;101557.72;5321346;27;20573;-80
2022/09/06 01:21:33;;;;;;;;;;;;;;;16.59;100.00;101545.78;5323643;27;19917;-80
2022/09/06 01:24:07;;;;;;;;;;;;;;;16.61;100.00;101528.44;5320584;27;19931;-80
2022/09/06 01:26:50;;;;;;;;;;;;;;;16.61;100.00;101498.00;5330140;27;19921;-80
2022/09/06 01:29:25;;;;;;;;;;;;;;;16.66;100.00;101478.66;5321467;27;20351;-79
2022/09/06 01:32:11;;;;;;;;;;;;;;;16.70;100.00;101471.91;5324431;27;19920;-80
2022/09/06 01:34:46;;;;;;;;;;;;;;;16.69;100.00;101448.66;5321742;27;19932;-80
2022/09/06 01:37:21;;;;;;;;;;;;;;;16.67;100.00;101445.31;5319213;27;19920;-80
2022/09/06 01:39:52;;;;;;;;;;;;;;;16.63;100.00;101442.94;5323092;27;20011;-80
2022/09/06 01:42:28;;;;;;;;;;;;;;;16.63;100.00;101434.84;5323221;27;19920;-80
2022/09/06 01:45:01;;;;;;;;;;;;;;;16.64;100.00;101424.94;5321827;27;20027;-80
2022/09/06 01:47:53;;;;;;;;;;;;;;;16.64;100.00;101416.88;5323602;27;20000;-80
2022/09/06 01:50:24;;;;;;;;;;;;;;;16.63;100.00;101404.41;5326361;27;19984;-80
2022/09/06 01:53:14;;;;;;;;;;;;;;;16.63;100.00;101397.16;5324886;27;19915;-80
2022/09/06 01:56:04;;;;;;;;;;;;;;;16.61;100.00;101374.94;5319976;27;19970;-79
2022/09/06 01:59:00;;;;;;;;;;;;;;;16.58;100.00;101377.97;5317900;27;19916;-79
2022/09/06 02:01:44;;;;;;;;;;;;;;;16.55;100.00;101385.53;5323040;27;19927;-79
2022/09/06 02:04:22;;;;;;;;;;;;;;;16.51;100.00;101411.97;5322765;27;20329;-78
2022/09/06 02:06:59;;;;;;;;;;;;;;;16.51;100.00;101470.38;5323382;27;20014;-79
2022/09/06 02:09:33;;;;;;;;;;;;;;;16.56;100.00;101454.56;5320017;27;19935;-80
2022/09/06 02:12:06;;;;;;;;;;;;;;;16.51;100.00;101433.50;5322511;27;19973;-79
2022/09/06 02:14:54;;;;;;;;;;;;;;;16.49;100.00;101440.09;5319014;27;20032;-79
2022/09/06 02:17:28;;;;;;;;;;;;;;;16.45;100.00;101426.94;5318388;27;19948;-79
2022/09/06 02:20:03;;;;;;;;;;;;;;;16.43;100.00;101433.53;5321328;27;20009;-79
2022/09/06 02:22:43;;;;;;;;;;;;;;;16.38;100.00;101430.47;5322206;27;20009;-79
2022/09/06 02:25:19;;;;;;;;;;;;;;;16.34;100.00;101432.66;5324388;27;20014;-79
2022/09/06 02:27:50;;;;;;;;;;;;;;;16.29;100.00;101437.69;5327223;27;19931;-79
2022/09/06 02:30:22;;;;;;;;;;;;;;;16.23;100.00;101446.41;5324887;27;19920;-79
2022/09/06 02:32:58;;;;;;;;;;;;;;;16.16;100.00;101440.84;5324310;27;19924;-79
2022/09/06 02:35:29;;;;;;;;;;;;;;;16.12;100.00;101423.34;5324561;27;20560;-79
2022/09/06 02:38:01;;;;;;;;;;;;;;;16.04;100.00;101413.44;5326713;27;19924;-79
2022/09/06 02:40:32;;;;;;;;;;;;;;;15.98;100.00;101424.00;5324917;27;19924;-79
2022/09/06 02:43:03;;;;;;;;;;;;;;;15.95;100.00;101422.47;5325318;27;20292;-79
2022/09/06 02:45:34;;;;;;;;;;;;;;;15.91;100.00;101414.91;5324300;27;19923;-79
2022/09/06 02:48:06;;;;;;;;;;;;;;;15.89;100.00;101417.75;5327289;27;19924;-80
2022/09/06 02:50:37;;;;;;;;;;;;;;;15.88;100.00;101424.13;5325742;27;20524;-79
2022/09/06 02:53:12;;;;;;;;;;;;;;;15.91;100.00;101425.66;5323443;27;19932;-79
2022/09/06 02:55:45;;;;;;;;;;;;;;;15.93;100.00;101431.72;5326454;27;19924;-79
2022/09/06 02:58:16;;;;;;;;;;;;;;;15.98;100.00;101432.06;5328548;27;20459;-79
2022/09/06 03:00:48;;;;;;;;;;;;;;;16.04;100.00;101428.72;5320547;27;20479;-80
2022/09/06 03:03:20;;;;;;;;;;;;;;;16.08;100.00;101432.78;5333891;27;19927;-79
2022/09/06 03:05:52;;;;;;;;;;;;;;;16.13;100.00;101443.03;5324405;27;19924;-79
2022/09/06 03:08:32;;;;;;;;;;;;;;;16.17;100.00;101441.72;5326116;27;20422;-79
2022/09/06 03:11:03;;;;;;;;;;;;;;;16.21;100.00;101438.50;5323819;27;19920;-79
2022/09/06 03:13:34;;;;;;;;;;;;;;;16.24;100.00;101431.97;5325242;27;20300;-79
2022/09/06 03:16:05;;;;;;;;;;;;;;;16.25;100.00;101434.50;5327719;27;19923;-79
2022/09/06 03:18:37;;;;;;;;;;;;;;;16.28;100.00;101432.47;5326648;27;20468;-79
2022/09/06 03:21:08;;;;;;;;;;;;;;;16.27;100.00;101434.34;5323441;27;19924;-79
2022/09/06 03:23:40;;;;;;;;;;;;;;;16.23;100.00;101433.81;5322458;27;20384;-78
2022/09/06 03:26:11;;;;;;;;;;;;;;;16.21;100.00;101443.06;5318973;27;19951;-78
2022/09/06 03:28:42;;;;;;;;;;;;;;;16.16;100.00;101440.84;5318659;27;19924;-79
2022/09/06 03:31:13;;;;;;;;;;;;;;;16.14;100.00;101440.19;5325286;27;19920;-79
2022/09/06 03:33:45;;;;;;;;;;;;;;;16.15;100.00;101441.88;5324596;27;19926;-79
2022/09/06 03:36:16;;;;;;;;;;;;;;;16.12;100.00;101439.50;5321672;27;20440;-80
2022/09/06 03:38:47;;;;;;;;;;;;;;;16.10;100.00;101435.31;5322697;27;19967;-80
2022/09/06 03:41:19;;;;;;;;;;;;;;;16.06;100.00;101430.25;5319461;27;20338;-80
2022/09/06 03:43:50;;;;;;;;;;;;;;;16.04;100.00;101426.03;5327817;27;19979;-80
2022/09/06 03:46:21;;;;;;;;;;;;;;;16.01;100.00;101427.22;5320169;27;19927;-80
2022/09/06 03:48:52;;;;;;;;;;;;;;;16.01;100.00;101437.13;5324351;27;19927;-79
2022/09/06 03:51:24;;;;;;;;;;;;;;;15.97;100.00;101439.31;5324671;27;20399;-79
2022/09/06 03:53:56;;;;;;;;;;;;;;;15.94;100.00;101430.72;5323551;27;19973;-79
2022/09/06 03:56:27;;;;;;;;;;;;;;;15.88;100.00;101430.38;5326351;27;19949;-80
2022/09/06 03:58:59;;;;;;;;;;;;;;;15.84;100.00;101437.06;5323654;27;20330;-79
2022/09/06 04:01:30;;;;;;;;;;;;;;;15.79;100.00;101439.41;5323754;27;19924;-79
2022/09/06 04:04:01;;;;;;;;;;;;;;;15.73;100.00;101437.34;5323924;27;19916;-80
2022/09/06 04:06:32;;;;;;;;;;;;;;;15.70;100.00;101446.56;5326298;27;20825;-79
2022/09/06 04:09:03;;;;;;;;;;;;;;;15.70;100.00;101445.72;5323642;27;19923;-80
2022/09/06 04:11:35;;;;;;;;;;;;;;;15.65;100.00;101446.19;5324997;27;20328;-79
2022/09/06 04:14:06;;;;;;;;;;;;;;;15.65;100.00;101461.50;5327629;27;19924;-80
2022/09/06 04:16:37;;;;;;;;;;;;;;;15.62;100.00;101459.13;5326694;27;20413;-79
2022/09/06 04:19:08;;;;;;;;;;;;;;;15.58;100.00;101461.28;5322564;27;19924;-80
2022/09/06 04:21:40;;;;;;;;;;;;;;;15.54;100.00;101461.78;5324429;27;20294;-80
2022/09/06 04:24:11;;;;;;;;;;;;;;;15.52;100.00;101459.25;5325999;27;20287;-80
2022/09/06 04:26:42;;;;;;;;;;;;;;;15.50;100.00;101462.09;5325877;27;20774;-80
2022/09/06 04:29:13;;;;;;;;;;;;;;;15.48;100.00;101463.28;5321506;27;19920;-80
2022/09/06 04:31:45;;;;;;;;;;;;;;;15.44;100.00;101464.56;5323144;27;20018;-80
2022/09/06 04:34:16;;;;;;;;;;;;;;;15.43;100.00;101460.22;5325243;27;20392;-80
2022/09/06 04:36:47;;;;;;;;;;;;;;;15.40;100.00;101465.91;5323528;27;19973;-79
2022/09/06 04:39:18;;;;;;;;;;;;;;;15.35;100.00;101461.00;5321157;27;19924;-80
2022/09/06 04:41:49;;;;;;;;;;;;;;;15.31;100.00;101465.84;5323493;27;19974;-80
2022/09/06 04:44:21;;;;;;;;;;;;;;;15.31;100.00;101463.16;5325208;27;19958;-80
2022/09/06 04:47:01;;;;;;;;;;;;;;;15.29;100.00;101462.47;5323452;27;19920;-79
2022/09/06 04:49:32;;;;;;;;;;;;;;;15.27;100.00;101472.53;5323219;27;20331;-79
2022/09/06 04:52:04;;;;;;;;;;;;;;;15.24;100.00;101467.47;5323526;27;19970;-79
2022/09/06 04:54:35;;;;;;;;;;;;;;;15.28;100.00;101473.38;5322277;27;19996;-79
2022/09/06 04:57:06;;;;;;;;;;;;;;;15.23;100.00;101462.25;5322713;27;19926;-80
2022/09/06 04:59:37;;;;;;;;;;;;;;;15.23;100.00;101470.31;5323424;27;19927;-79
2022/09/06 05:02:09;;;;;;;;;;;;;;;15.23;100.00;101468.47;5319374;27;19924;-80
2022/09/06 05:04:40;;;;;;;;;;;;;;;15.22;100.00;101465.97;5323938;27;20004;-80
2022/09/06 05:07:11;;;;;;;;;;;;;;;15.20;100.00;101457.19;5322842;27;19924;-79
2022/09/06 05:09:42;;;;;;;;;;;;;;;15.19;100.00;101453.66;5320518;27;20029;-80
2022/09/06 05:12:14;;;;;;;;;;;;;;;15.16;100.00;101443.22;5323645;27;20009;-79
2022/09/06 05:14:45;;;;;;;;;;;;;;;15.18;100.00;101457.38;5322878;27;19924;-80
2022/09/06 05:17:17;;;;;;;;;;;;;;;15.17;100.00;101458.38;5327004;27;19931;-79
2022/09/06 05:19:48;;;;;;;;;;;;;;;15.11;100.00;101457.16;5322442;27;19924;-80
2022/09/06 05:22:19;;;;;;;;;;;;;;;15.13;100.00;101457.84;5321178;27;19916;-79
2022/09/06 05:24:51;;;;;;;;;;;;;;;15.21;100.00;101458.91;5322042;27;20303;-80
2022/09/06 05:27:22;;;;;;;;;;;;;;;15.31;100.00;101459.63;5326254;27;20346;-80
2022/09/06 05:29:53;;;;;;;;;;;;;;;15.36;100.00;101462.69;5321862;27;19974;-80
2022/09/06 05:32:25;;;;;;;;;;;;;;;15.39;100.00;101467.75;5323390;27;19923;-80
2022/09/06 05:34:56;;;;;;;;;;;;;;;15.41;100.00;101471.13;5324452;27;19924;-79
2022/09/06 05:37:27;;;;;;;;;;;;;;;15.49;100.00;101467.63;5325635;27;19920;-80
2022/09/06 05:40:00;;;;;;;;;;;;;;;15.56;100.00;101474.06;5322702;27;19969;-80
2022/09/06 05:42:31;;;;;;;;;;;;;;;15.58;100.00;101465.81;5319603;27;19920;-80
2022/09/06 05:45:03;;;;;;;;;;;;;;;15.62;100.00;101470.75;5319412;27;19927;-79
2022/09/06 05:47:34;;;;;;;;;;;;;;;15.69;100.00;101479.00;5324882;27;19951;-79
2022/09/06 05:50:06;;;;;;;;;;;;;;;15.72;100.00;101478.66;5325956;27;19926;-79
2022/09/06 05:52:38;;;;;;;;;;;;;;;15.76;100.00;101474.69;5323961;27;19962;-79
2022/09/06 05:55:09;;;;;;;;;;;;;;;15.80;100.00;101473.38;5323885;27;20011;-80
2022/09/06 05:57:40;;;;;;;;;;;;;;;15.87;100.00;101476.25;5317192;27;20309;-79
2022/09/06 06:00:12;;;;;;;;;;;;;;;15.92;100.00;101470.38;5325666;27;20300;-80
2022/09/06 06:02:46;;;;;;;;;;;;;;;15.96;100.00;101475.28;5323266;27;20009;-79
2022/09/06 06:05:17;;;;;;;;;;;;;;;15.98;100.00;101470.56;5325392;27;19920;-80
2022/09/06 06:07:49;;;;;;;;;;;;;;;16.02;100.00;101473.78;5317851;27;20321;-79
2022/09/06 06:10:20;;;;;;;;;;;;;;;16.11;100.00;101471.97;5326532;27;19920;-79
2022/09/06 06:12:51;;;;;;;;;;;;;;;16.18;100.00;101468.47;5323942;27;20054;-79
2022/09/06 06:15:22;;;;;;;;;;;;;;;16.28;100.00;101475.53;5328063;27;19973;-79
2022/09/06 06:17:53;;;;;;;;;;;;;;;16.33;100.00;101468.66;5314789;27;20273;-79
2022/09/06 06:20:25;;;;;;;;;;;;;;;16.44;100.00;101479.13;5317296;27;19924;-78
2022/09/06 06:22:56;;;;;;;;;;;;;;;16.55;100.00;101469.88;5317317;27;19922;-79
2022/09/06 06:25:28;;;;;;;;;;;;;;;16.64;100.00;101478.81;5322220;27;20943;-80
2022/09/06 06:27:59;;;;;;;;;;;;;;;16.70;100.00;101480.00;5316826;27;19924;-78
2022/09/06 06:30:30;;;;;;;;;;;;;;;16.74;100.00;101470.56;5317971;27;19970;-79
2022/09/06 06:33:01;;;;;;;;;;;;;;;16.84;100.00;101467.75;5321998;27;19959;-79
2022/09/06 06:35:32;;;;;;;;;;;;;;;16.94;100.00;101468.41;5321397;27;19924;-79
2022/09/06 06:38:03;;;;;;;;;;;;;;;17.06;100.00;101466.19;5317770;27;20007;-79
2022/09/06 06:40:35;;;;;;;;;;;;;;;17.45;100.00;101460.09;5322400;27;19916;-79
2022/09/06 06:43:09;;;;;;;;;;;;;;;18.03;100.00;101463.44;5334206;27;19973;-80
2022/09/06 06:45:40;;;;;;;;;;;;;;;18.68;100.00;101459.47;5324053;27;19920;-80
2022/09/06 06:48:12;;;;;;;;;;;;;;;19.19;100.00;101459.69;5327139;27;19973;-80
2022/09/06 06:50:43;;;;;;;;;;;;;;;19.71;100.00;101465.25;5318183;27;19924;-80
2022/09/06 06:53:14;;;;;;;;;;;;;;;20.06;100.00;101458.22;5321436;27;19928;-80
2022/09/06 06:55:47;;;;;;;;;;;;;;;20.50;100.00;101453.69;5327112;27;20407;-79
2022/09/06 06:58:18;;;;;;;;;;;;;;;20.91;100.00;101447.63;5329503;27;20017;-80
2022/09/06 07:00:50;;;;;;;;;;;;;;;21.31;100.00;101445.19;5316842;27;20015;-80
2022/09/06 07:03:21;;;;;;;;;;;;;;;21.69;100.00;101440.22;5317917;28;19917;-80
2022/09/06 07:05:52;;;;;;;;;;;;;;;22.04;100.00;101436.59;5320626;27;20030;-80
2022/09/06 07:08:23;;;;;;;;;;;;;;;22.56;100.00;101428.78;5330551;27;19923;-80
2022/09/06 07:10:54;;;;;;;;;;;;;;;23.11;100.00;101424.00;5329804;27;19965;-80
2022/09/06 07:13:26;;;;;;;;;;;;;;;23.52;100.00;101420.13;5326785;27;20011;-79
2022/09/06 07:16:11;;;;;;;;;;;;;;;23.66;100.00;101426.34;5325287;27;19920;-80
2022/09/06 07:18:44;;;;;;;;;;;;;;;23.87;100.00;101429.88;5324498;27;19916;-79
2022/09/06 07:21:16;;;;;;;;;;;;;;;24.37;100.00;101430.03;5327627;27;20296;-79
2022/09/06 07:23:47;;;;;;;;;;;;;;;24.80;100.00;101425.72;5321303;27;19920;-79
2022/09/06 07:26:23;;;;;;;;;;;;;;;25.25;100.00;101434.56;5322555;27;19950;-80
2022/09/06 07:28:58;;;;;;;;;;;;;;;25.68;100.00;101427.34;5340069;27;19987;-81
2022/09/06 07:31:31;;;;;;;;;;;;;;;25.65;100.00;101425.91;5326049;27;19920;-80
2022/09/06 07:34:03;;;;;;;;;;;;;;;26.09;100.00;101425.81;5332021;27;19919;-80
2022/09/06 07:36:35;;;;;;;;;;;;;;;26.59;100.00;101422.72;5328441;27;19963;-80
2022/09/06 07:39:06;;;;;;;;;;;;;;;26.56;100.00;101420.47;5327456;27;20008;-80
2022/09/06 07:41:37;;;;;;;;;;;;;;;26.98;100.00;101431.38;5328028;27;19975;-79
2022/09/06 07:44:09;;;;;;;;;;;;;;;27.06;100.00;101429.34;5326130;27;20073;-80
2022/09/06 07:46:40;;;;;;;;;;;;;;;27.24;100.00;101429.19;5323618;27;20283;-80
2022/09/06 07:49:11;;;;;;;;;;;;;;;27.52;100.00;101428.50;5323855;27;19982;-79
2022/09/06 07:51:43;;;;;;;;;;;;;;;28.04;100.00;101435.84;5326653;27;19955;-79
2022/09/06 07:54:14;;;;;;;;;;;;;;;28.53;100.00;101423.53;5326013;27;19925;-79
2022/09/06 07:56:45;;;;;;;;;;;;;;;29.16;100.00;101422.38;5325283;27;19916;-79
2022/09/06 07:59:16;;;;;;;;;;;;;;;29.51;100.00;101415.69;5322720;27;20406;-79
2022/09/06 08:01:48;;;;;;;;;;;;;;;29.64;100.00;101414.47;5323728;27;19920;-80
2022/09/06 08:04:20;;;;;;;;;;;;;;;29.96;100.00;101411.84;5327209;27;20304;-78
2022/09/06 08:06:51;;;;;;;;;;;;;;;30.34;100.00;101412.78;5324842;27;19931;-79
2022/09/06 08:09:23;;;;;;;;;;;;;;;30.61;100.00;101411.94;5325435;27;19920;-80
2022/09/06 08:11:55;;;;;;;;;;;;;;;30.61;95.97;101411.06;5323736;27;19928;-80
2022/09/06 08:14:26;;;;;;;;;;;;;;;29.96;100.00;101414.59;5328974;27;19924;-80
2022/09/06 08:16:57;;;;;;;;;;;;;;;29.33;100.00;101413.25;5331003;27;19974;-80
2022/09/06 08:19:28;;;;;;;;;;;;;;;29.04;100.00;101421.63;5323514;27;19920;-80
2022/09/06 08:22:00;;;;;;;;;;;;;;;28.70;100.00;101415.31;5324289;27;19916;-79
2022/09/06 08:24:34;;;;;;;;;;;;;;;28.85;100.00;101416.41;5328097;27;19916;-80
2022/09/06 08:27:06;;;;;;;;;;;;;;;28.64;100.00;101417.97;5324734;27;19942;-79
2022/09/06 08:29:38;;;;;;;;;;;;;;;28.19;100.00;101424.34;5327400;27;19974;-80
2022/09/06 08:32:09;;;;;;;;;;;;;;;27.47;100.00;101431.13;5326398;27;20001;-80
2022/09/06 08:34:41;;;;;;;;;;;;;;;27.50;100.00;101427.88;5324999;27;20342;-79
2022/09/06 08:37:12;;;;;;;;;;;;;;;28.92;100.00;101423.63;5324153;27;19922;-79
2022/09/06 08:39:43;;;;;;;;;;;;;;;29.96;100.00;101406.34;5318594;27;20019;-80
2022/09/06 08:42:14;;;;;;;;;;;;;;;30.69;100.00;101424.38;5326621;28;19931;-81
2022/09/06 08:44:49;;;;;;;;;;;;;;;30.74;96.08;101418.91;5327240;27;19915;-80
2022/09/06 08:47:20;;;;;;;;;;;;;;;30.76;97.67;101432.41;5326926;27;19916;-80
2022/09/06 08:50:01;;;;;;;;;;;;;;;30.57;95.53;101420.97;5326526;27;19981;-80
2022/09/06 08:52:32;;;;;;;;;;;;;;;30.61;98.68;101417.44;5326934;27;20300;-80
2022/09/06 08:55:09;;;;;;;;;;;;;;;31.16;93.96;101420.03;5327487;28;19916;-80
2022/09/06 08:57:49;;;;;;;;;;;;;;;31.23;92.10;101417.88;5325342;28;19913;-80
2022/09/06 09:00:21;;;;;;;;;;;;;;;31.82;88.00;101408.47;5326669;27;19919;-80
2022/09/06 09:02:58;;;;;;;;;;;;;;;32.32;83.16;101420.72;5326340;27;20118;-79
2022/09/06 09:05:31;;;;;;;;;;;;;;;31.84;78.13;101426.41;5328809;27;20011;-81
2022/09/06 09:08:12;;;;;;;;;;;;;;;32.68;85.96;101422.66;5330060;27;19919;-80
2022/09/06 09:10:45;;;;;;;;;;;;;;;33.11;72.91;101423.97;5327782;27;19916;-80
2022/09/06 09:13:19;;;;;;;;;;;;;;;33.77;77.13;101419.34;5327492;27;20356;-80
2022/09/06 09:15:51;;;;;;;;;;;;;;;34.10;71.10;101409.47;5327000;27;20355;-80
2022/09/06 09:18:25;;;;;;;;;;;;;;;34.18;62.00;101408.00;5326458;27;19917;-80
2022/09/06 09:20:57;;;;;;;;;;;;;;;34.20;65.78;101394.72;5326910;27;19923;-80
2022/09/06 09:23:29;;;;;;;;;;;;;;;34.38;68.28;101397.91;5326005;27;19920;-80
2022/09/06 09:26:02;;;;;;;;;;;;;;;34.22;61.48;101402.75;5329047;27;19928;-81
2022/09/06 09:28:34;;;;;;;;;;;;;;;34.00;64.12;101414.25;5326455;27;20295;-80
2022/09/06 09:31:05;;;;;;;;;;;;;;;33.54;67.01;101404.25;5326684;27;19920;-80
2022/09/06 09:33:38;;;;;;;;;;;;;;;34.09;77.43;101409.75;5326590;27;19946;-80
2022/09/06 09:36:12;;;;;;;;;;;;;;;34.54;60.99;101404.13;5326490;27;19923;-80
2022/09/06 09:38:45;;;;;;;;;;;;;;;35.28;63.79;101410.34;5326925;27;19924;-81
2022/09/06 09:41:26;;;;;;;;;;;;;;;36.47;56.20;101412.28;5326218;27;19931;-81
2022/09/06 09:44:15;;;;;;;;;;;;;;;36.63;51.98;101415.63;5326609;27;19916;-80
2022/09/06 09:46:46;;;;;;;;;;;;;;;36.12;51.65;101404.22;5326017;27;19912;-81
2022/09/06 09:49:20;;;;;;;;;;;;;;;37.19;49.77;101409.03;5325773;27;20019;-81
2022/09/06 09:52:05;;;;;;;;;;;;;;;37.89;47.65;101407.00;5326333;27;20291;-81
2022/09/06 09:54:37;;;;;;;;;;;;;;;38.35;47.49;101407.84;5323965;28;19917;-81
2022/09/06 09:57:17;;;;;;;;;;;;;;;39.53;45.53;101398.22;5325805;27;20299;-81
2022/09/06 09:59:52;;;;;;;;;;;;;;;39.78;40.97;101400.22;5326375;27;19916;-81
2022/09/06 10:02:26;;;;;;;;;;;;;;;39.44;42.80;101396.22;5326034;27;20412;-81
2022/09/06 10:05:02;;;;;;;;;;;;;;;39.62;40.77;101396.25;5326425;28;20003;-80
2022/09/06 10:07:34;;;;;;;;;;;;;;;39.21;39.47;101400.28;5325420;27;19928;-81
2022/09/06 10:10:09;;;;;;;;;;;;;;;39.17;39.36;101419.63;5326242;27;19912;-81
2022/09/06 10:12:41;;;;;;;;;;;;;;;38.49;42.79;101421.72;5326180;27;20283;-81
2022/09/06 10:15:32;;;;;;;;;;;;;;;39.29;42.51;101414.25;5325729;27;19923;-81
2022/09/06 10:18:03;;;;;;;;;;;;;;;39.36;41.96;101412.94;5323856;27;19977;-81
2022/09/06 10:20:41;;;;;;;;;;;;;;;38.81;40.89;101412.22;5325664;27;19916;-80
2022/09/06 10:23:15;;;;;;;;;;;;;;;39.08;41.90;101421.53;5324094;27;19912;-81
2022/09/06 10:25:58;;;;;;;;;;;;;;;38.98;41.19;101422.63;5320767;27;19917;-81
2022/09/06 10:28:30;;;;;;;;;;;;;;;39.62;44.02;101422.19;5304123;28;19924;-81
2022/09/06 10:31:10;;;;;;;;;;;;;;;40.06;44.89;101417.50;5337437;27;19923;-81
2022/09/06 10:33:58;;;;;;;;;;;;;;;40.44;40.53;101407.59;5304317;28;20003;-80
2022/09/06 10:36:29;;;;;;;;;;;;;;;40.97;45.27;101411.91;5304689;28;19916;-81
2022/09/06 10:39:11;;;;;;;;;;;;;;;41.10;35.84;101412.00;5320295;27;19923;-81
2022/09/06 10:41:55;;;;;;;;;;;;;;;40.66;36.00;101409.34;5325625;27;19982;-80
2022/09/06 10:44:32;;;;;;;;;;;;;;;40.81;41.54;101400.41;5327637;27;19970;-81
2022/09/06 10:47:13;;;;;;;;;;;;;;;40.64;40.25;101404.09;5329405;27;19916;-81
2022/09/06 10:49:47;;;;;;;;;;;;;;;40.68;41.91;101407.03;5329316;27;19912;-81
2022/09/06 10:52:25;;;;;;;;;;;;;;;40.07;38.80;101399.56;5329358;27;20019;-81
2022/09/06 10:55:03;;;;;;;;;;;;;;;40.02;39.03;101404.50;5328642;27;19923;-81
2022/09/06 10:57:43;;;;;;;;;;;;;;;38.97;39.94;101401.47;5328761;27;19912;-81
2022/09/06 11:00:15;;;;;;;;;;;;;;;38.72;44.29;101400.22;5327698;27;19923;-81
2022/09/06 11:03:02;;;;;;;;;;;;;;;39.33;37.94;101392.91;5308095;28;20269;-81
2022/09/06 11:05:36;;;;;;;;;;;;;;;40.13;42.99;101402.19;5307283;28;19978;-81
2022/09/06 11:08:14;;;;;;;;;;;;;;;39.93;45.26;101396.13;5340196;27;20471;-81
2022/09/06 11:10:48;;;;;;;;;;;;;;;39.06;46.69;101401.53;5344068;27;19920;-81
2022/09/06 11:13:21;;;;;;;;;;;;;;;40.22;48.16;101412.22;5328350;27;19916;-80
2022/09/06 11:16:12;;;;;;;;;;;;;;;41.04;37.50;101414.13;5327455;27;19913;-80
2022/09/06 11:18:57;;;;;;;;;;;;;;;40.57;35.92;101419.72;5328855;27;19916;-80
2022/09/06 11:21:28;;;;;;;;;;;;;;;40.87;34.87;101419.81;5328557;28;20392;-80
2022/09/06 11:24:13;;;;;;;;;;;;;;;41.28;40.59;101423.94;5329085;27;19965;-81
2022/09/06 11:26:44;;;;;;;;;;;;;;;41.69;43.29;101426.00;5327926;27;20007;-81
2022/09/06 11:29:21;;;;;;;;;;;;;;;40.61;34.68;101424.31;5327091;28;20022;-81
2022/09/06 11:31:53;;;;;;;;;;;;;;;40.30;36.67;101427.31;5328905;27;19912;-80
2022/09/06 11:34:27;;;;;;;;;;;;;;;40.26;40.73;101421.56;5328319;27;20300;-81
2022/09/06 11:36:58;;;;;;;;;;;;;;;39.68;35.87;101429.28;5320719;27;19970;-80
2022/09/06 11:39:36;;;;;;;;;;;;;;;40.56;39.95;101421.69;5311105;28;19913;-80
2022/09/06 11:42:08;;;;;;;;;;;;;;;42.19;40.02;101424.25;5310276;28;20416;-80
2022/09/06 11:44:51;;;;;;;;;;;;;;;41.33;36.32;101418.16;5340716;27;20383;-80
2022/09/06 11:47:42;;;;;;;;;;;;;;;41.28;39.09;101416.34;5307099;28;19923;-81
2022/09/06 11:50:20;;;;;;;;;;;;;;;43.46;37.60;101404.09;5327460;27;20086;-81
2022/09/06 11:52:54;;;;;;;;;;;;;;;44.53;32.37;101406.38;5327955;27;19951;-80
2022/09/06 11:55:39;;;;;;;;;;;;;;;45.35;36.58;101409.66;5325659;27;20460;-81
2022/09/06 11:58:16;;;;;;;;;;;;;;;43.78;28.90;101400.31;5327574;27;20020;-81
2022/09/06 12:01:06;;;;;;;;;;;;;;;44.51;32.97;101401.09;5327812;27;19912;-81
2022/09/06 12:03:37;;;;;;;;;;;;;;;45.03;28.22;101404.06;5326361;27;19916;-81
2022/09/06 12:06:14;;;;;;;;;;;;;;;44.07;33.73;101408.72;5328460;27;20359;-80
2022/09/06 12:08:46;;;;;;;;;;;;;;;44.64;26.64;101403.88;5326329;27;19965;-81
2022/09/06 12:11:23;;;;;;;;;;;;;;;45.89;26.65;101391.91;5327706;27;20007;-80
2022/09/06 12:14:02;;;;;;;;;;;;;;;46.03;28.52;101392.19;5327755;27;20001;-81
2022/09/06 12:16:52;;;;;;;;;;;;;;;46.84;28.46;101390.44;5327605;27;19916;-80
2022/09/06 12:19:40;;;;;;;;;;;;;;;47.28;26.05;101386.28;5326148;28;19916;-80
2022/09/06 12:22:31;;;;;;;;;;;;;;;47.73;29.51;101384.47;5327872;27;19912;-80
2022/09/06 12:25:02;;;;;;;;;;;;;;;47.66;22.97;101385.19;5325394;27;20399;-81
2022/09/06 12:27:36;;;;;;;;;;;;;;;47.62;22.83;101384.34;5321866;27;19917;-81
2022/09/06 12:30:10;;;;;;;;;;;;;;;46.91;25.46;101386.94;5306359;28;20031;-81
2022/09/06 12:32:47;;;;;;;;;;;;;;;47.13;27.15;101388.06;5306699;28;19916;-81
2022/09/06 12:35:23;;;;;;;;;;;;;;;47.98;23.59;101387.59;5325159;27;20307;-81
2022/09/06 12:37:56;;;;;;;;;;;;;;;48.08;26.87;101388.94;5306248;28;19913;-80
2022/09/06 12:40:32;;;;;;;;;;;;;;;46.35;23.56;101388.38;5306087;28;19913;-81
2022/09/06 12:43:04;;;;;;;;;;;;;;;45.60;29.02;101370.75;5305513;28;20028;-81
2022/09/06 12:45:40;;;;;;;;;;;;;;;45.43;27.97;101366.41;5306166;28;20087;-80
2022/09/06 12:48:25;;;;;;;;;;;;;;;45.62;29.02;101362.75;5306406;28;20003;-81
2022/09/06 12:51:01;;;;;;;;;;;;;;;45.97;28.85;101359.88;5326165;27;20410;-80
2022/09/06 12:53:33;;;;;;;;;;;;;;;46.87;23.97;101350.19;5327138;27;19977;-80
2022/09/06 12:56:11;;;;;;;;;;;;;;;46.74;29.51;101355.22;5327515;27;19935;-81
2022/09/06 12:58:42;;;;;;;;;;;;;;;46.20;27.46;101356.28;5327323;27;19916;-78
2022/09/06 13:01:21;;;;;;;;;;;;;;;46.40;27.52;101348.59;5317724;27;20373;-79
2022/09/06 13:04:01;;;;;;;;;;;;;;;46.98;29.53;101353.19;5307862;27;19934;-78
2022/09/06 13:06:37;;;;;;;;;;;;;;;47.57;28.60;101347.09;5326243;27;19976;-79